sensor_id;sensor_type;location;lat;lon;timestamp;pressure;altitude;pressure_sealevel;temperature;humidity
74065;BME280;62421;51.412;5.432;2022-08-03T00:00:39;101387.81;;;19.68;76.27
74065;BME280;62421;51.412;5.432;2022-08-03T00:03:05;101385.56;;;19.63;76.23
74065;BME280;62421;51.412;5.432;2022-08-03T00:05:30;101385.88;;;19.60;76.20
74065;BME280;62421;51.412;5.432;2022-08-03T00:07:58;101385.47;;;19.55;76.36
74065;BME280;62421;51.412;5.432;2022-08-03T00:10:23;101384.03;;;19.51;76.46
74065;BME280;62421;51.412;5.432;2022-08-03T00:12:49;101391.38;;;19.50;76.37
74065;BME280;62421;51.412;5.432;2022-08-03T00:15:15;101393.84;;;19.43;76.59
74065;BME280;62421;51.412;5.432;2022-08-03T00:17:40;101383.28;;;19.40;76.52
74065;BME280;62421;51.412;5.432;2022-08-03T00:20:06;101385.13;;;19.40;76.26
74065;BME280;62421;51.412;5.432;2022-08-03T00:22:34;101386.41;;;19.36;76.38
74065;BME280;62421;51.412;5.432;2022-08-03T00:24:59;101394.75;;;19.34;76.61
74065;BME280;62421;51.412;5.432;2022-08-03T00:27:25;101399.38;;;19.34;76.52
74065;BME280;62421;51.412;5.432;2022-08-03T00:29:50;101388.75;;;19.31;76.65
74065;BME280;62421;51.412;5.432;2022-08-03T00:32:15;101384.63;;;19.27;76.47
74065;BME280;62421;51.412;5.432;2022-08-03T00:34:40;101384.94;;;19.23;76.63
74065;BME280;62421;51.412;5.432;2022-08-03T00:37:06;101384.09;;;19.23;76.71
74065;BME280;62421;51.412;5.432;2022-08-03T00:39:31;101378.94;;;19.20;76.76
74065;BME280;62421;51.412;5.432;2022-08-03T00:42:01;101386.38;;;19.18;76.56
74065;BME280;62421;51.412;5.432;2022-08-03T00:44:26;101367.47;;;19.16;76.80
74065;BME280;62421;51.412;5.432;2022-08-03T00:46:51;101382.25;;;19.14;76.94
74065;BME280;62421;51.412;5.432;2022-08-03T00:49:17;101379.97;;;19.09;77.11
74065;BME280;62421;51.412;5.432;2022-08-03T00:51:42;101380.13;;;19.08;76.94
74065;BME280;62421;51.412;5.432;2022-08-03T00:54:08;101381.84;;;19.09;76.82
74065;BME280;62421;51.412;5.432;2022-08-03T00:56:34;101378.56;;;19.05;76.82
74065;BME280;62421;51.412;5.432;2022-08-03T00:59:02;101379.88;;;19.01;77.75
74065;BME280;62421;51.412;5.432;2022-08-03T01:01:27;101370.13;;;18.98;77.52
74065;BME280;62421;51.412;5.432;2022-08-03T01:03:52;101368.72;;;18.94;77.55
74065;BME280;62421;51.412;5.432;2022-08-03T01:06:27;101371.59;;;18.93;77.50
74065;BME280;62421;51.412;5.432;2022-08-03T01:11:47;101377.66;;;18.87;78.18
74065;BME280;62421;51.412;5.432;2022-08-03T01:14:26;101369.75;;;18.83;77.39
74065;BME280;62421;51.412;5.432;2022-08-03T01:16:56;101368.22;;;18.81;77.63
74065;BME280;62421;51.412;5.432;2022-08-03T01:19:44;101367.34;;;18.80;76.85
74065;BME280;62421;51.412;5.432;2022-08-03T01:25:23;101362.75;;;18.71;77.54
74065;BME280;62421;51.412;5.432;2022-08-03T01:30:55;101361.94;;;18.61;78.28
74065;BME280;62421;51.412;5.432;2022-08-03T01:33:34;101365.25;;;18.55;77.80
74065;BME280;62421;51.412;5.432;2022-08-03T01:36:03;101362.81;;;18.52;78.26
74065;BME280;62421;51.412;5.432;2022-08-03T01:38:41;101358.38;;;18.51;77.51
74065;BME280;62421;51.412;5.432;2022-08-03T01:41:11;101357.69;;;18.49;78.34
74065;BME280;62421;51.412;5.432;2022-08-03T01:43:39;101358.97;;;18.45;78.34
74065;BME280;62421;51.412;5.432;2022-08-03T01:46:07;101356.56;;;18.41;78.37
74065;BME280;62421;51.412;5.432;2022-08-03T01:48:35;101356.13;;;18.36;78.89
74065;BME280;62421;51.412;5.432;2022-08-03T01:51:02;101351.69;;;18.35;78.82
74065;BME280;62421;51.412;5.432;2022-08-03T01:53:28;101361.56;;;18.36;78.68
74065;BME280;62421;51.412;5.432;2022-08-03T01:55:56;101347.81;;;18.28;79.19
74065;BME280;62421;51.412;5.432;2022-08-03T01:58:23;101352.41;;;18.28;79.02
74065;BME280;62421;51.412;5.432;2022-08-03T02:00:50;101352.56;;;18.26;79.13
74065;BME280;62421;51.412;5.432;2022-08-03T02:03:17;101346.44;;;18.24;79.18
74065;BME280;62421;51.412;5.432;2022-08-03T02:05:44;101352.84;;;18.23;79.38
74065;BME280;62421;51.412;5.432;2022-08-03T02:08:11;101349.41;;;18.21;79.38
74065;BME280;62421;51.412;5.432;2022-08-03T02:10:40;101354.84;;;18.21;79.30
74065;BME280;62421;51.412;5.432;2022-08-03T02:13:06;101347.84;;;18.18;79.46
74065;BME280;62421;51.412;5.432;2022-08-03T02:15:35;101345.56;;;18.14;79.55
74065;BME280;62421;51.412;5.432;2022-08-03T02:18:02;101346.72;;;18.01;80.20
74065;BME280;62421;51.412;5.432;2022-08-03T02:20:29;101351.44;;;17.99;79.74
74065;BME280;62421;51.412;5.432;2022-08-03T02:22:57;101352.16;;;18.01;79.89
74065;BME280;62421;51.412;5.432;2022-08-03T02:25:22;101352.16;;;18.01;80.07
74065;BME280;62421;51.412;5.432;2022-08-03T02:28:07;101350.47;;;18.00;79.74
74065;BME280;62421;51.412;5.432;2022-08-03T02:30:35;101343.44;;;17.98;80.18
74065;BME280;62421;51.412;5.432;2022-08-03T02:33:04;101358.88;;;17.97;80.11
74065;BME280;62421;51.412;5.432;2022-08-03T02:35:31;101350.84;;;17.96;80.22
74065;BME280;62421;51.412;5.432;2022-08-03T02:38:00;101345.16;;;17.89;80.53
74065;BME280;62421;51.412;5.432;2022-08-03T02:40:27;101348.75;;;17.90;80.23
74065;BME280;62421;51.412;5.432;2022-08-03T02:42:54;101350.88;;;17.86;80.26
74065;BME280;62421;51.412;5.432;2022-08-03T02:45:23;101342.88;;;17.85;80.45
74065;BME280;62421;51.412;5.432;2022-08-03T02:47:51;101339.97;;;17.76;80.81
74065;BME280;62421;51.412;5.432;2022-08-03T02:50:20;101344.97;;;17.71;81.10
74065;BME280;62421;51.412;5.432;2022-08-03T02:52:47;101342.13;;;17.73;80.52
74065;BME280;62421;51.412;5.432;2022-08-03T02:55:15;101353.00;;;17.73;80.91
74065;BME280;62421;51.412;5.432;2022-08-03T02:57:43;101341.53;;;17.69;81.21
74065;BME280;62421;51.412;5.432;2022-08-03T03:00:11;101336.81;;;17.61;81.38
74065;BME280;62421;51.412;5.432;2022-08-03T03:02:39;101342.09;;;17.63;81.21
74065;BME280;62421;51.412;5.432;2022-08-03T03:05:05;101338.41;;;17.64;81.23
74065;BME280;62421;51.412;5.432;2022-08-03T03:07:32;101328.53;;;17.63;80.80
74065;BME280;62421;51.412;5.432;2022-08-03T03:09:59;101337.69;;;17.62;80.91
74065;BME280;62421;51.412;5.432;2022-08-03T03:12:25;101339.81;;;17.58;80.83
74065;BME280;62421;51.412;5.432;2022-08-03T03:14:51;101332.22;;;17.52;81.27
74065;BME280;62421;51.412;5.432;2022-08-03T03:17:18;101337.09;;;17.49;80.77
74065;BME280;62421;51.412;5.432;2022-08-03T03:19:45;101330.78;;;17.48;81.12
74065;BME280;62421;51.412;5.432;2022-08-03T03:22:11;101329.94;;;17.48;81.09
74065;BME280;62421;51.412;5.432;2022-08-03T03:24:40;101332.78;;;17.46;81.49
74065;BME280;62421;51.412;5.432;2022-08-03T03:27:07;101332.22;;;17.43;81.56
74065;BME280;62421;51.412;5.432;2022-08-03T03:29:33;101333.63;;;17.37;81.39
74065;BME280;62421;51.412;5.432;2022-08-03T03:32:00;101332.50;;;17.39;81.56
74065;BME280;62421;51.412;5.432;2022-08-03T03:34:28;101340.81;;;17.38;81.26
74065;BME280;62421;51.412;5.432;2022-08-03T03:36:54;101332.91;;;17.35;81.61
74065;BME280;62421;51.412;5.432;2022-08-03T03:39:19;101334.19;;;17.31;81.67
74065;BME280;62421;51.412;5.432;2022-08-03T03:41:45;101336.19;;;17.29;81.71
74065;BME280;62421;51.412;5.432;2022-08-03T03:44:10;101351.03;;;17.25;81.45
74065;BME280;62421;51.412;5.432;2022-08-03T03:46:37;101336.47;;;17.26;81.53
74065;BME280;62421;51.412;5.432;2022-08-03T03:49:04;101337.47;;;17.25;81.91
74065;BME280;62421;51.412;5.432;2022-08-03T03:51:30;101332.91;;;17.25;82.01
74065;BME280;62421;51.412;5.432;2022-08-03T03:53:57;101338.47;;;17.24;81.79
74065;BME280;62421;51.412;5.432;2022-08-03T03:56:23;101333.91;;;17.24;81.57
74065;BME280;62421;51.412;5.432;2022-08-03T03:58:49;101337.63;;;17.23;81.71
74065;BME280;62421;51.412;5.432;2022-08-03T04:01:15;101339.16;;;17.16;82.49
74065;BME280;62421;51.412;5.432;2022-08-03T04:03:41;101337.31;;;17.16;81.98
74065;BME280;62421;51.412;5.432;2022-08-03T04:06:06;101337.00;;;17.10;82.57
74065;BME280;62421;51.412;5.432;2022-08-03T04:08:50;101330.44;;;17.12;82.18
74065;BME280;62421;51.412;5.432;2022-08-03T04:11:44;101329.72;;;17.10;81.95
74065;BME280;62421;51.412;5.432;2022-08-03T04:14:16;101332.88;;;17.06;82.39
74065;BME280;62421;51.412;5.432;2022-08-03T04:16:47;101334.97;;;17.02;82.43
74065;BME280;62421;51.412;5.432;2022-08-03T04:19:17;101335.97;;;17.01;82.70
74065;BME280;62421;51.412;5.432;2022-08-03T04:21:47;101333.72;;;17.06;82.48
74065;BME280;62421;51.412;5.432;2022-08-03T04:24:14;101335.56;;;17.06;83.02
74065;BME280;62421;51.412;5.432;2022-08-03T04:26:40;101338.97;;;17.08;82.55
74065;BME280;62421;51.412;5.432;2022-08-03T04:29:08;101337.16;;;17.08;82.55
74065;BME280;62421;51.412;5.432;2022-08-03T04:31:35;101333.72;;;17.06;82.67
74065;BME280;62421;51.412;5.432;2022-08-03T04:34:03;101348.72;;;17.10;82.27
74065;BME280;62421;51.412;5.432;2022-08-03T04:36:31;101351.28;;;17.12;82.37
74065;BME280;62421;51.412;5.432;2022-08-03T04:39:05;101347.84;;;17.10;82.66
74065;BME280;62421;51.412;5.432;2022-08-03T04:41:33;101339.16;;;17.16;82.75
74065;BME280;62421;51.412;5.432;2022-08-03T04:44:00;101343.31;;;17.20;82.19
74065;BME280;62421;51.412;5.432;2022-08-03T04:46:30;101348.47;;;17.23;82.12
74065;BME280;62421;51.412;5.432;2022-08-03T04:48:56;101333.75;;;17.26;82.18
74065;BME280;62421;51.412;5.432;2022-08-03T04:51:22;101350.47;;;17.31;81.77
74065;BME280;62421;51.412;5.432;2022-08-03T04:53:48;101353.06;;;17.32;81.93
74065;BME280;62421;51.412;5.432;2022-08-03T04:56:14;101343.09;;;17.52;81.34
74065;BME280;62421;51.412;5.432;2022-08-03T04:58:39;101347.97;;;18.36;79.23
74065;BME280;62421;51.412;5.432;2022-08-03T05:01:04;101352.28;;;19.41;75.43
74065;BME280;62421;51.412;5.432;2022-08-03T05:03:30;101351.09;;;20.08;73.17
74065;BME280;62421;51.412;5.432;2022-08-03T05:05:56;101352.50;;;20.82;70.44
74065;BME280;62421;51.412;5.432;2022-08-03T05:08:21;101350.78;;;21.74;67.44
74065;BME280;62421;51.412;5.432;2022-08-03T05:10:46;101352.75;;;22.31;65.40
74065;BME280;62421;51.412;5.432;2022-08-03T05:13:12;101345.63;;;22.78;63.70
74065;BME280;62421;51.412;5.432;2022-08-03T05:15:39;101361.53;;;23.38;61.95
74065;BME280;62421;51.412;5.432;2022-08-03T05:18:05;101357.59;;;23.95;60.26
74065;BME280;62421;51.412;5.432;2022-08-03T05:20:30;101355.22;;;24.53;58.58
74065;BME280;62421;51.412;5.432;2022-08-03T05:22:56;101365.38;;;24.97;57.09
74065;BME280;62421;51.412;5.432;2022-08-03T05:25:22;101376.94;;;25.22;56.08
74065;BME280;62421;51.412;5.432;2022-08-03T05:27:50;101366.69;;;24.71;57.01
74065;BME280;62421;51.412;5.432;2022-08-03T05:30:15;101367.16;;;23.68;59.38
74065;BME280;62421;51.412;5.432;2022-08-03T05:32:41;101367.06;;;22.66;62.86
74065;BME280;62421;51.412;5.432;2022-08-03T05:35:06;101378.00;;;21.84;65.35
74065;BME280;62421;51.412;5.432;2022-08-03T05:37:32;101365.66;;;21.21;67.46
74065;BME280;62421;51.412;5.432;2022-08-03T05:39:57;101370.19;;;20.70;70.23
74065;BME280;62421;51.412;5.432;2022-08-03T05:42:23;101371.56;;;20.30;71.62
74065;BME280;62421;51.412;5.432;2022-08-03T05:44:48;101374.09;;;20.05;72.70
74065;BME280;62421;51.412;5.432;2022-08-03T05:47:13;101368.09;;;19.83;73.69
74065;BME280;62421;51.412;5.432;2022-08-03T05:49:39;101385.56;;;19.63;75.16
74065;BME280;62421;51.412;5.432;2022-08-03T05:52:04;101377.03;;;19.48;74.84
74065;BME280;62421;51.412;5.432;2022-08-03T05:54:30;101375.28;;;19.29;76.98
74065;BME280;62421;51.412;5.432;2022-08-03T05:56:55;101377.22;;;19.19;76.33
74065;BME280;62421;51.412;5.432;2022-08-03T05:59:20;101384.13;;;19.13;75.97
74065;BME280;62421;51.412;5.432;2022-08-03T06:01:46;101378.41;;;19.07;77.34
74065;BME280;62421;51.412;5.432;2022-08-03T06:04:11;101373.72;;;18.99;77.03
74065;BME280;62421;51.412;5.432;2022-08-03T06:06:37;101384.19;;;18.94;77.94
74065;BME280;62421;51.412;5.432;2022-08-03T06:09:02;101371.75;;;18.91;77.86
74065;BME280;62421;51.412;5.432;2022-08-03T06:11:27;101378.50;;;18.87;78.55
74065;BME280;62421;51.412;5.432;2022-08-03T06:13:53;101377.66;;;18.87;78.25
74065;BME280;62421;51.412;5.432;2022-08-03T06:16:18;101381.34;;;18.86;78.39
74065;BME280;62421;51.412;5.432;2022-08-03T06:18:43;101379.66;;;18.85;79.28
74065;BME280;62421;51.412;5.432;2022-08-03T06:21:10;101376.75;;;18.86;78.81
74065;BME280;62421;51.412;5.432;2022-08-03T06:23:35;101379.91;;;18.91;78.46
74065;BME280;62421;51.412;5.432;2022-08-03T06:26:01;101384.50;;;18.91;79.74
74065;BME280;62421;51.412;5.432;2022-08-03T06:28:26;101386.22;;;18.92;79.95
74065;BME280;62421;51.412;5.432;2022-08-03T06:30:51;101376.59;;;18.97;78.67
74065;BME280;62421;51.412;5.432;2022-08-03T06:33:17;101377.47;;;18.98;79.43
74065;BME280;62421;51.412;5.432;2022-08-03T06:35:42;101380.56;;;19.03;78.78
74065;BME280;62421;51.412;5.432;2022-08-03T06:38:07;101384.56;;;19.09;78.22
74065;BME280;62421;51.412;5.432;2022-08-03T06:40:35;101383.66;;;19.18;77.78
74065;BME280;62421;51.412;5.432;2022-08-03T06:43:04;101394.28;;;19.21;78.49
74065;BME280;62421;51.412;5.432;2022-08-03T06:45:30;101397.94;;;19.30;77.74
74065;BME280;62421;51.412;5.432;2022-08-03T06:48:10;101391.88;;;19.36;77.71
74065;BME280;62421;51.412;5.432;2022-08-03T06:50:37;101393.28;;;19.40;78.98
74065;BME280;62421;51.412;5.432;2022-08-03T06:53:04;101397.84;;;19.49;78.01
74065;BME280;62421;51.412;5.432;2022-08-03T06:55:30;101392.63;;;19.56;76.15
74065;BME280;62421;51.412;5.432;2022-08-03T06:57:56;101388.69;;;19.68;76.26
74065;BME280;62421;51.412;5.432;2022-08-03T07:00:23;101388.72;;;19.86;75.20
74065;BME280;62421;51.412;5.432;2022-08-03T07:02:49;101399.72;;;19.94;75.94
74065;BME280;62421;51.412;5.432;2022-08-03T07:05:14;101390.28;;;20.07;74.80
74065;BME280;62421;51.412;5.432;2022-08-03T07:07:40;101383.91;;;20.16;74.70
74065;BME280;62421;51.412;5.432;2022-08-03T07:10:06;101391.81;;;20.27;73.29
74065;BME280;62421;51.412;5.432;2022-08-03T07:12:33;101405.13;;;20.48;71.82
74065;BME280;62421;51.412;5.432;2022-08-03T07:14:59;101394.91;;;20.50;74.00
74065;BME280;62421;51.412;5.432;2022-08-03T07:17:25;101402.00;;;20.61;72.67
74065;BME280;62421;51.412;5.432;2022-08-03T07:19:50;101402.03;;;20.69;70.93
74065;BME280;62421;51.412;5.432;2022-08-03T07:22:16;101409.94;;;20.72;73.49
74065;BME280;62421;51.412;5.432;2022-08-03T07:24:41;101405.00;;;20.76;71.22
74065;BME280;62421;51.412;5.432;2022-08-03T07:27:07;101405.88;;;20.76;71.46
74065;BME280;62421;51.412;5.432;2022-08-03T07:29:33;101406.22;;;20.81;71.79
74065;BME280;62421;51.412;5.432;2022-08-03T07:31:59;101410.91;;;20.89;71.25
74065;BME280;62421;51.412;5.432;2022-08-03T07:34:25;101414.31;;;20.91;70.09
74065;BME280;62421;51.412;5.432;2022-08-03T07:36:50;101407.13;;;20.90;71.91
74065;BME280;62421;51.412;5.432;2022-08-03T07:39:16;101423.41;;;21.00;69.62
74065;BME280;62421;51.412;5.432;2022-08-03T07:41:41;101418.16;;;21.06;69.01
74065;BME280;62421;51.412;5.432;2022-08-03T07:44:06;101415.09;;;21.10;70.14
74065;BME280;62421;51.412;5.432;2022-08-03T07:46:32;101409.38;;;21.21;69.12
74065;BME280;62421;51.412;5.432;2022-08-03T07:48:57;101411.78;;;21.32;68.56
74065;BME280;62421;51.412;5.432;2022-08-03T07:51:22;101415.03;;;21.36;69.99
74065;BME280;62421;51.412;5.432;2022-08-03T07:53:48;101414.72;;;21.39;69.54
74065;BME280;62421;51.412;5.432;2022-08-03T07:56:13;101406.59;;;21.47;66.58
74065;BME280;62421;51.412;5.432;2022-08-03T07:58:41;101406.59;;;21.55;68.59
74065;BME280;62421;51.412;5.432;2022-08-03T08:01:06;101406.81;;;21.62;67.83
74065;BME280;62421;51.412;5.432;2022-08-03T08:03:31;101417.94;;;21.68;68.31
74065;BME280;62421;51.412;5.432;2022-08-03T08:05:57;101409.53;;;21.70;67.40
74065;BME280;62421;51.412;5.432;2022-08-03T08:08:22;101413.66;;;21.74;66.54
74065;BME280;62421;51.412;5.432;2022-08-03T08:10:47;101412.69;;;21.83;66.62
74065;BME280;62421;51.412;5.432;2022-08-03T08:13:13;101414.72;;;21.89;65.86
74065;BME280;62421;51.412;5.432;2022-08-03T08:15:38;101415.06;;;21.86;68.41
74065;BME280;62421;51.412;5.432;2022-08-03T08:18:05;101422.25;;;21.96;66.22
74065;BME280;62421;51.412;5.432;2022-08-03T08:20:33;101415.09;;;22.03;66.43
74065;BME280;62421;51.412;5.432;2022-08-03T08:23:01;101413.56;;;22.17;65.60
74065;BME280;62421;51.412;5.432;2022-08-03T08:25:28;101407.94;;;22.18;65.81
74065;BME280;62421;51.412;5.432;2022-08-03T08:27:54;101394.09;;;22.28;64.65
74065;BME280;62421;51.412;5.432;2022-08-03T08:30:21;101394.28;;;22.35;63.98
74065;BME280;62421;51.412;5.432;2022-08-03T08:32:48;101396.84;;;22.44;64.59
74065;BME280;62421;51.412;5.432;2022-08-03T08:35:14;101389.47;;;22.53;64.95
74065;BME280;62421;51.412;5.432;2022-08-03T08:37:40;101400.94;;;22.57;63.21
74065;BME280;62421;51.412;5.432;2022-08-03T08:40:06;101393.22;;;22.68;63.68
74065;BME280;62421;51.412;5.432;2022-08-03T08:42:32;101390.47;;;22.77;64.63
74065;BME280;62421;51.412;5.432;2022-08-03T08:45:01;101390.47;;;22.85;63.10
74065;BME280;62421;51.412;5.432;2022-08-03T08:47:30;101382.03;;;23.03;61.91
74065;BME280;62421;51.412;5.432;2022-08-03T08:49:57;101397.78;;;23.09;63.59
74065;BME280;62421;51.412;5.432;2022-08-03T08:52:29;101389.56;;;23.09;63.37
74065;BME280;62421;51.412;5.432;2022-08-03T08:55:03;101390.75;;;23.15;62.07
74065;BME280;62421;51.412;5.432;2022-08-03T08:57:37;101394.97;;;23.25;63.35
74065;BME280;62421;51.412;5.432;2022-08-03T09:00:07;101394.41;;;23.38;60.12
74065;BME280;62421;51.412;5.432;2022-08-03T09:02:34;101392.78;;;23.52;58.21
74065;BME280;62421;51.412;5.432;2022-08-03T09:05:00;101397.66;;;23.73;57.57
74065;BME280;62421;51.412;5.432;2022-08-03T09:07:26;101395.56;;;23.75;57.38
74065;BME280;62421;51.412;5.432;2022-08-03T09:09:52;101391.66;;;23.78;57.76
74065;BME280;62421;51.412;5.432;2022-08-03T09:12:20;101396.72;;;23.89;57.47
74065;BME280;62421;51.412;5.432;2022-08-03T09:14:46;101401.97;;;23.99;57.47
74065;BME280;62421;51.412;5.432;2022-08-03T09:17:11;101387.69;;;24.03;57.64
74065;BME280;62421;51.412;5.432;2022-08-03T09:19:37;101395.50;;;24.15;56.95
74065;BME280;62421;51.412;5.432;2022-08-03T09:22:16;101395.50;;;24.15;58.70
74065;BME280;62421;51.412;5.432;2022-08-03T09:24:56;101400.38;;;24.27;57.95
74065;BME280;62421;51.412;5.432;2022-08-03T09:27:22;101394.91;;;24.42;55.55
74065;BME280;62421;51.412;5.432;2022-08-03T09:29:49;101394.50;;;24.53;55.28
74065;BME280;62421;51.412;5.432;2022-08-03T09:32:19;101391.69;;;24.62;55.10
74065;BME280;62421;51.412;5.432;2022-08-03T09:34:46;101385.72;;;24.73;55.45
74065;BME280;62421;51.412;5.432;2022-08-03T09:37:14;101388.13;;;24.76;54.08
74065;BME280;62421;51.412;5.432;2022-08-03T09:39:39;101386.41;;;24.90;54.38
74065;BME280;62421;51.412;5.432;2022-08-03T09:44:36;101386.00;;;25.08;53.63
74065;BME280;62421;51.412;5.432;2022-08-03T09:47:03;101385.75;;;25.18;52.05
74065;BME280;62421;51.412;5.432;2022-08-03T09:49:28;101401.19;;;25.33;52.79
74065;BME280;62421;51.412;5.432;2022-08-03T09:51:55;101387.84;;;25.30;53.68
74065;BME280;62421;51.412;5.432;2022-08-03T09:54:30;101385.56;;;25.34;54.38
74065;BME280;62421;51.412;5.432;2022-08-03T09:56:57;101390.94;;;25.42;52.35
74065;BME280;62421;51.412;5.432;2022-08-03T09:59:25;101382.78;;;25.49;51.66
74065;BME280;62421;51.412;5.432;2022-08-03T10:01:50;101388.25;;;25.64;52.27
74065;BME280;62421;51.412;5.432;2022-08-03T10:04:16;101388.06;;;25.65;51.69
74065;BME280;62421;51.412;5.432;2022-08-03T10:06:45;101388.41;;;25.77;52.91
74065;BME280;62421;51.412;5.432;2022-08-03T10:09:25;101392.25;;;25.98;52.54
74065;BME280;62421;51.412;5.432;2022-08-03T10:11:51;101386.44;;;26.07;51.51
74065;BME280;62421;51.412;5.432;2022-08-03T10:14:16;101392.84;;;26.14;50.89
74065;BME280;62421;51.412;5.432;2022-08-03T10:16:45;101379.31;;;26.20;51.46
74065;BME280;62421;51.412;5.432;2022-08-03T10:19:11;101379.31;;;26.20;51.42
74065;BME280;62421;51.412;5.432;2022-08-03T10:21:40;101379.00;;;26.29;49.90
74065;BME280;62421;51.412;5.432;2022-08-03T10:24:07;101369.28;;;26.33;50.47
74065;BME280;62421;51.412;5.432;2022-08-03T10:26:35;101362.34;;;26.38;50.38
74065;BME280;62421;51.412;5.432;2022-08-03T10:29:07;101363.84;;;26.40;50.29
74065;BME280;62421;51.412;5.432;2022-08-03T10:31:39;101352.63;;;26.42;50.12
74065;BME280;62421;51.412;5.432;2022-08-03T10:34:10;101369.94;;;26.57;50.33
74065;BME280;62421;51.412;5.432;2022-08-03T10:36:39;101360.00;;;26.63;51.70
74065;BME280;62421;51.412;5.432;2022-08-03T10:39:05;101355.88;;;26.80;48.43
74065;BME280;62421;51.412;5.432;2022-08-03T10:41:34;101352.13;;;26.88;48.20
74065;BME280;62421;51.412;5.432;2022-08-03T10:44:13;101359.94;;;26.84;47.77
74065;BME280;62421;51.412;5.432;2022-08-03T10:46:42;101342.56;;;26.84;47.00
74065;BME280;62421;51.412;5.432;2022-08-03T10:49:12;101347.53;;;27.02;50.03
74065;BME280;62421;51.412;5.432;2022-08-03T10:51:38;101343.94;;;27.08;45.90
74065;BME280;62421;51.412;5.432;2022-08-03T10:54:03;101337.06;;;27.25;45.75
74065;BME280;62421;51.412;5.432;2022-08-03T11:02:10;101335.25;;;27.46;46.67
74065;BME280;62421;51.412;5.432;2022-08-03T11:04:36;101327.84;;;27.60;46.06
74065;BME280;62421;51.412;5.432;2022-08-03T11:07:21;101331.47;;;27.60;47.24
74065;BME280;62421;51.412;5.432;2022-08-03T11:09:54;101326.19;;;27.72;46.54
74065;BME280;62421;51.412;5.432;2022-08-03T11:12:28;101325.78;;;27.75;46.12
74065;BME280;62421;51.412;5.432;2022-08-03T11:14:55;101326.44;;;27.84;45.27
74065;BME280;62421;51.412;5.432;2022-08-03T11:17:21;101323.66;;;27.84;44.54
74065;BME280;62421;51.412;5.432;2022-08-03T11:19:51;101318.81;;;27.92;45.66
74065;BME280;62421;51.412;5.432;2022-08-03T11:22:18;101324.75;;;27.96;44.49
74065;BME280;62421;51.412;5.432;2022-08-03T11:35:06;101318.41;;;28.35;44.99
74065;BME280;62421;51.412;5.432;2022-08-03T11:37:32;101315.63;;;28.35;44.33
74065;BME280;62421;51.412;5.432;2022-08-03T11:39:57;101314.16;;;28.39;44.79
74065;BME280;62421;51.412;5.432;2022-08-03T11:44:52;101317.75;;;28.47;43.71
74065;BME280;62421;51.412;5.432;2022-08-03T11:47:22;101315.63;;;28.62;44.45
74065;BME280;62421;51.412;5.432;2022-08-03T11:49:50;101313.03;;;28.67;44.35
74065;BME280;62421;51.412;5.432;2022-08-03T11:52:16;101311.78;;;28.70;44.74
74065;BME280;62421;51.412;5.432;2022-08-03T11:54:42;101314.53;;;28.70;45.45
74065;BME280;62421;51.412;5.432;2022-08-03T11:57:08;101312.63;;;28.70;44.32
74065;BME280;62421;51.412;5.432;2022-08-03T11:59:35;101305.41;;;28.63;43.21
74065;BME280;62421;51.412;5.432;2022-08-03T12:02:12;101310.09;;;28.62;44.29
74065;BME280;62421;51.412;5.432;2022-08-03T12:07:16;101312.00;;;28.68;44.41
74065;BME280;62421;51.412;5.432;2022-08-03T12:09:42;101309.00;;;28.76;43.79
74065;BME280;62421;51.412;5.432;2022-08-03T12:12:08;101321.06;;;28.95;44.45
74065;BME280;62421;51.412;5.432;2022-08-03T12:14:33;101320.59;;;29.12;44.31
74065;BME280;62421;51.412;5.432;2022-08-03T12:16:58;101319.06;;;29.23;42.62
74065;BME280;62421;51.412;5.432;2022-08-03T12:19:24;101312.66;;;29.29;41.79
74065;BME280;62421;51.412;5.432;2022-08-03T12:21:50;101318.75;;;29.37;41.90
74065;BME280;62421;51.412;5.432;2022-08-03T12:24:15;101318.34;;;29.40;42.08
74065;BME280;62421;51.412;5.432;2022-08-03T12:26:46;101316.59;;;29.46;43.13
74065;BME280;62421;51.412;5.432;2022-08-03T12:29:30;101319.41;;;29.39;42.95
74065;BME280;62421;51.412;5.432;2022-08-03T12:31:55;101314.78;;;29.27;41.06
74065;BME280;62421;51.412;5.432;2022-08-03T12:34:21;101311.34;;;29.31;41.31
74065;BME280;62421;51.412;5.432;2022-08-03T12:36:51;101311.97;;;29.33;43.45
74065;BME280;62421;51.412;5.432;2022-08-03T12:39:17;101311.91;;;29.47;41.70
74065;BME280;62421;51.412;5.432;2022-08-03T12:41:52;101316.28;;;29.61;41.07
74065;BME280;62421;51.412;5.432;2022-08-03T12:44:28;101308.34;;;29.78;41.50
74065;BME280;62421;51.412;5.432;2022-08-03T12:46:56;101307.19;;;29.86;42.19
74065;BME280;62421;51.412;5.432;2022-08-03T12:49:22;101316.44;;;29.79;40.10
74065;BME280;62421;51.412;5.432;2022-08-03T12:54:21;101306.94;;;29.62;40.51
74065;BME280;62421;51.412;5.432;2022-08-03T12:57:03;101303.72;;;29.65;42.61
74065;BME280;62421;51.412;5.432;2022-08-03T12:59:33;101304.72;;;29.77;40.82
74065;BME280;62421;51.412;5.432;2022-08-03T13:01:59;101310.38;;;29.89;40.54
74065;BME280;62421;51.412;5.432;2022-08-03T13:04:30;101310.31;;;29.96;41.83
74065;BME280;62421;51.412;5.432;2022-08-03T13:09:26;101306.31;;;29.92;41.48
74065;BME280;62421;51.412;5.432;2022-08-03T13:12:09;101306.34;;;29.85;41.38
74065;BME280;62421;51.412;5.432;2022-08-03T13:14:35;101293.09;;;29.94;41.03
74065;BME280;62421;51.412;5.432;2022-08-03T13:17:00;101295.75;;;29.82;40.28
74065;BME280;62421;51.412;5.432;2022-08-03T13:19:26;101284.47;;;29.84;41.32
74065;BME280;62421;51.412;5.432;2022-08-03T13:21:51;101285.81;;;29.99;40.24
74065;BME280;62421;51.412;5.432;2022-08-03T13:24:16;101289.50;;;30.18;40.60
74065;BME280;62421;51.412;5.432;2022-08-03T13:26:43;101274.41;;;30.39;40.05
74065;BME280;62421;51.412;5.432;2022-08-03T13:29:08;101286.50;;;30.64;40.75